Time;durP1;ratioP1;P1;durP2;ratioP2;P2;SDS_P1;SDS_P2;PMS_P1;PMS_P2;Temp;Humidity;BMP_temperature;BMP_pressure;BME280_temperature;BME280_humidity;BME280_pressure;Samples;Min_cycle;Max_cycle;Signal;HPM_P1;HPM_P2
2023/12/01 00:02:24;;;;;;;24.77;10.90;;;;;1.90;99755.00;;;;5044710;28;20869;-71
2023/12/01 00:05:11;;;;;;;24.00;9.80;;;;;2.00;99744.00;;;;5043401;28;20233;-71
2023/12/01 00:07:59;;;;;;;23.13;9.87;;;;;1.90;99757.00;;;;5044518;28;20245;-75
2023/12/01 00:10:45;;;;;;;22.13;13.07;;;;;1.90;99763.00;;;;5045070;28;20231;-70
2023/12/01 00:13:31;;;;;;;23.37;9.27;;;;;1.80;99757.00;;;;5037398;28;20257;-71
2023/12/01 00:16:18;;;;;;;24.23;11.20;;;;;2.00;99753.00;;;;5042416;28;20225;-69
2023/12/01 00:19:04;;;;;;;29.33;10.03;;;;;1.90;99769.00;;;;5044374;28;20242;-73
2023/12/01 00:21:51;;;;;;;32.80;12.33;;;;;1.90;99756.00;;;;5044651;28;20234;-71
2023/12/01 00:24:38;;;;;;;17.90;8.90;;;;;2.00;99764.00;;;;5042194;28;20223;-72
2023/12/01 00:27:25;;;;;;;26.43;11.17;;;;;2.00;99770.00;;;;5042529;28;20235;-70
2023/12/01 00:30:12;;;;;;;19.77;10.20;;;;;1.80;99764.00;;;;5042650;28;20236;-70
2023/12/01 00:32:59;;;;;;;19.83;9.13;;;;;1.90;99769.00;;;;5035993;28;20260;-71
2023/12/01 00:35:45;;;;;;;20.67;10.40;;;;;1.90;99770.00;;;;5041301;28;20368;-70
2023/12/01 00:38:32;;;;;;;23.07;9.63;;;;;1.90;99780.00;;;;5042487;28;20372;-72
2023/12/01 00:41:20;;;;;;;15.93;9.27;;;;;1.90;99780.00;;;;5044691;28;20224;-70
2023/12/01 00:44:07;;;;;;;23.37;8.90;;;;;1.80;99792.00;;;;5044138;28;20239;-71
2023/12/01 00:46:53;;;;;;;23.83;8.10;;;;;1.80;99780.00;;;;5045405;28;20789;-72
2023/12/01 00:49:39;;;;;;;21.37;8.73;;;;;1.80;99788.00;;;;5046905;28;20303;-70
2023/12/01 00:52:25;;;;;;;17.50;7.67;;;;;1.80;99784.00;;;;5047136;28;20858;-71
2023/12/01 00:55:11;;;;;;;16.40;8.47;;;;;1.70;99788.00;;;;5045806;28;20355;-71
2023/12/01 00:57:59;;;;;;;13.97;7.53;;;;;1.70;99796.00;;;;5040143;28;20229;-71
2023/12/01 01:00:46;;;;;;;19.20;8.67;;;;;1.70;99794.00;;;;5047208;28;20229;-73
2023/12/01 01:03:32;;;;;;;18.73;9.07;;;;;1.70;99797.00;;;;5045869;28;20236;-71
2023/12/01 01:06:18;;;;;;;20.60;9.00;;;;;1.80;99792.00;;;;5047194;28;20259;-71
2023/12/01 01:09:05;;;;;;;20.97;9.53;;;;;1.80;99806.00;;;;5047003;28;20237;-71
2023/12/01 01:11:51;;;;;;;17.50;9.20;;;;;1.80;99792.00;;;;5045885;28;20306;-69
2023/12/01 01:14:39;;;;;;;17.43;8.57;;;;;1.80;99794.00;;;;5043852;28;20242;-71
2023/12/01 01:17:25;;;;;;;15.07;9.23;;;;;1.80;99803.00;;;;5046651;28;20314;-70
2023/12/01 01:20:12;;;;;;;18.17;8.37;;;;;1.70;99804.00;;;;5039358;28;20303;-71
2023/12/01 01:22:58;;;;;;;15.40;8.73;;;;;1.80;99818.00;;;;5044344;28;20235;-73
2023/12/01 01:25:45;;;;;;;13.70;6.67;;;;;1.70;99808.00;;;;5046446;28;20394;-69
2023/12/01 01:28:31;;;;;;;23.13;8.53;;;;;1.80;99812.00;;;;5041284;28;20362;-72
2023/12/01 01:31:19;;;;;;;14.30;8.10;;;;;1.80;99812.00;;;;5043484;28;20354;-71
2023/12/01 01:34:05;;;;;;;12.13;7.20;;;;;1.70;99820.00;;;;5039980;28;20286;-71
2023/12/01 01:36:51;;;;;;;18.67;8.37;;;;;1.80;99825.00;;;;5044150;28;20291;-71
2023/12/01 01:39:38;;;;;;;12.67;6.97;;;;;1.70;99820.00;;;;5045460;28;20229;-71
2023/12/01 01:42:24;;;;;;;14.70;7.50;;;;;1.70;99817.00;;;;5045988;28;20612;-71
2023/12/01 01:45:10;;;;;;;10.97;6.07;;;;;1.60;99821.00;;;;5046010;28;20813;-72
2023/12/01 01:47:59;;;;;;;19.43;8.37;;;;;1.70;99819.00;;;;5042964;28;20229;-73
2023/12/01 01:50:45;;;;;;;16.23;8.90;;;;;1.70;99822.00;;;;5045858;28;20241;-71
2023/12/01 01:53:33;;;;;;;12.73;6.90;;;;;1.70;99828.00;;;;5040188;28;20365;-71
2023/12/01 01:56:20;;;;;;;12.80;6.57;;;;;1.70;99830.00;;;;5045507;28;20227;-70
2023/12/01 01:59:09;;;;;;;14.50;6.70;;;;;1.80;99827.00;;;;5040671;28;20228;-72
2023/12/01 02:01:56;;;;;;;15.03;7.60;;;;;1.70;99835.00;;;;5046256;28;20234;-67
2023/12/01 02:04:44;;;;;;;16.63;7.70;;;;;1.60;99838.00;;;;5043084;28;20301;-71
2023/12/01 02:07:30;;;;;;;11.57;5.57;;;;;1.60;99826.00;;;;5045511;28;20313;-70
2023/12/01 02:10:17;;;;;;;12.80;6.63;;;;;1.70;99828.00;;;;5039363;28;20754;-72
2023/12/01 02:13:10;;;;;;;9.07;5.27;;;;;1.70;99828.00;;;;5038618;28;20225;-72
2023/12/01 02:15:56;;;;;;;8.67;5.57;;;;;1.80;99826.00;;;;5043698;28;20234;-70
2023/12/01 02:18:42;;;;;;;13.80;7.07;;;;;1.80;99829.00;;;;5043949;28;20290;-71
2023/12/01 02:21:37;;;;;;;12.93;7.10;;;;;1.80;99829.00;;;;5040621;28;20299;-70
2023/12/01 02:24:23;;;;;;;10.23;6.13;;;;;1.70;99839.00;;;;5039129;28;20236;-71
2023/12/01 02:27:09;;;;;;;14.53;7.50;;;;;1.70;99826.00;;;;5039538;28;20237;-71
2023/12/01 02:29:56;;;;;;;14.40;6.93;;;;;1.80;99832.00;;;;5038009;28;20255;-72
2023/12/01 02:32:43;;;;;;;15.93;8.63;;;;;1.80;99836.00;;;;5042355;28;20229;-74
2023/12/01 02:35:30;;;;;;;17.90;7.03;;;;;1.70;99843.00;;;;5031492;28;20302;-73
2023/12/01 02:38:19;;;;;;;14.50;7.37;;;;;1.60;99840.00;;;;5044951;28;20237;-71
2023/12/01 02:41:06;;;;;;;17.13;8.13;;;;;1.60;99842.00;;;;5040444;28;20238;-69
2023/12/01 02:43:53;;;;;;;22.73;8.83;;;;;1.50;99842.00;;;;5043858;28;20281;-70
2023/12/01 02:46:39;;;;;;;16.00;7.60;;;;;1.50;99839.00;;;;5043906;28;20250;-68
2023/12/01 02:49:26;;;;;;;18.33;7.83;;;;;1.50;99841.00;;;;5040555;28;20228;-71
2023/12/01 02:52:12;;;;;;;17.90;7.93;;;;;1.50;99838.00;;;;5043280;28;20241;-72
2023/12/01 02:55:00;;;;;;;17.73;7.30;;;;;1.50;99840.00;;;;5040677;28;20232;-71
2023/12/01 02:57:46;;;;;;;20.33;7.83;;;;;1.50;99838.00;;;;5044950;28;20356;-70
2023/12/01 03:00:32;;;;;;;10.97;5.53;;;;;1.50;99840.00;;;;5041250;28;20281;-71
2023/12/01 03:03:19;;;;;;;12.43;5.90;;;;;1.70;99827.00;;;;5037601;28;20281;-71
2023/12/01 03:06:06;;;;;;;12.10;6.77;;;;;1.60;99843.00;;;;5039023;28;20232;-71
2023/12/01 03:08:53;;;;;;;11.63;6.70;;;;;1.50;99835.00;;;;5044862;28;20234;-72
2023/12/01 03:11:40;;;;;;;12.80;6.27;;;;;1.50;99836.00;;;;5038586;28;20722;-71
2023/12/01 03:14:27;;;;;;;11.10;5.77;;;;;1.50;99843.00;;;;5044432;28;20236;-72
2023/12/01 03:17:13;;;;;;;10.90;5.70;;;;;1.40;99835.00;;;;5037543;28;20238;-73
2023/12/01 03:19:59;;;;;;;14.10;6.50;;;;;1.60;99834.00;;;;5044644;28;20232;-71
2023/12/01 03:22:50;;;;;;;9.57;6.30;;;;;1.60;99834.00;;;;5043356;28;20728;-71
2023/12/01 03:25:36;;;;;;;13.60;7.47;;;;;1.70;99839.00;;;;5026273;28;20221;-70
2023/12/01 03:28:24;;;;;;;14.37;6.37;;;;;1.60;99839.00;;;;5030138;28;20229;-72
2023/12/01 03:31:10;;;;;;;10.60;5.93;;;;;1.70;99837.00;;;;5037349;28;20252;-71
2023/12/01 03:33:57;;;;;;;12.47;6.93;;;;;1.70;99844.00;;;;5043348;28;20299;-73
2023/12/01 03:36:43;;;;;;;17.83;7.53;;;;;1.70;99848.00;;;;5044194;28;20616;-73
2023/12/01 03:39:30;;;;;;;20.87;6.57;;;;;1.70;99849.00;;;;5042696;28;20236;-74
2023/12/01 03:42:16;;;;;;;12.27;5.83;;;;;1.70;99852.00;;;;5044072;28;20220;-71
2023/12/01 03:45:06;;;;;;;14.30;6.00;;;;;1.70;99845.00;;;;5037293;28;20237;-72
2023/12/01 03:47:53;;;;;;;11.87;5.90;;;;;1.60;99849.00;;;;5043090;28;20729;-72
2023/12/01 03:50:39;;;;;;;16.60;7.03;;;;;1.60;99863.00;;;;5044039;28;20758;-69
2023/12/01 03:53:25;;;;;;;13.37;7.30;;;;;1.50;99862.00;;;;5041876;28;20230;-71
2023/12/01 03:56:11;;;;;;;13.60;6.27;;;;;1.50;99854.00;;;;5040728;28;20236;-72
2023/12/01 03:58:58;;;;;;;13.57;6.80;;;;;1.60;99865.00;;;;5037127;28;20230;-69
2023/12/01 04:01:46;;;;;;;13.40;6.40;;;;;1.60;99859.00;;;;5043076;28;20887;-73
2023/12/01 04:04:32;;;;;;;13.60;6.43;;;;;1.60;99861.00;;;;5043631;28;20308;-72
2023/12/01 04:07:18;;;;;;;15.27;6.80;;;;;1.70;99866.00;;;;5043447;28;20267;-71
2023/12/01 04:10:10;;;;;;;14.57;6.53;;;;;1.70;99868.00;;;;5043109;28;20237;-71
2023/12/01 04:13:05;;;;;;;14.17;6.93;;;;;1.70;99869.00;;;;5040368;28;20598;-72
2023/12/01 04:15:52;;;;;;;12.73;6.20;;;;;1.50;99864.00;;;;5040921;28;20462;-72
2023/12/01 04:18:40;;;;;;;17.90;7.40;;;;;1.50;99876.00;;;;5029272;28;20241;-71
2023/12/01 04:21:26;;;;;;;11.90;5.83;;;;;1.50;99871.00;;;;5047019;28;20233;-72
2023/12/01 04:24:13;;;;;;;12.87;5.90;;;;;1.60;99867.00;;;;5047704;28;20217;-70
2023/12/01 04:26:59;;;;;;;16.63;7.23;;;;;1.60;99875.00;;;;5046304;28;20603;-72
2023/12/01 04:29:45;;;;;;;20.27;6.97;;;;;1.60;99877.00;;;;5047567;28;20282;-71
2023/12/01 04:32:32;;;;;;;13.43;7.10;;;;;1.60;99882.00;;;;5043125;28;20306;-73
2023/12/01 04:35:20;;;;;;;16.27;8.10;;;;;1.60;99888.00;;;;5043342;28;20240;-70
2023/12/01 04:38:08;;;;;;;13.03;6.23;;;;;1.70;99895.00;;;;5046847;28;20239;-71
2023/12/01 04:40:57;;;;;;;11.57;6.67;;;;;1.60;99897.00;;;;5046145;28;20249;-71
2023/12/01 04:43:44;;;;;;;7.47;4.67;;;;;1.60;99895.00;;;;5046082;28;20230;-71
2023/12/01 04:46:30;;;;;;;17.00;7.73;;;;;1.60;99901.00;;;;5046294;28;20228;-71
2023/12/01 04:49:17;;;;;;;16.20;7.03;;;;;1.60;99894.00;;;;5040332;28;20304;-71
2023/12/01 04:52:05;;;;;;;17.27;6.43;;;;;1.60;99895.00;;;;5033902;28;20238;-71
2023/12/01 04:54:51;;;;;;;23.07;6.97;;;;;1.60;99902.00;;;;5046158;28;20233;-71
2023/12/01 04:57:40;;;;;;;14.33;7.23;;;;;1.60;99902.00;;;;5047382;28;20276;-71
2023/12/01 05:00:27;;;;;;;13.80;6.87;;;;;1.60;99906.00;;;;5040820;28;20224;-70
2023/12/01 05:03:14;;;;;;;16.50;6.13;;;;;1.50;99912.00;;;;5044215;28;20962;-71
2023/12/01 05:06:01;;;;;;;11.13;6.60;;;;;1.60;99924.00;;;;5045483;28;20241;-73
2023/12/01 05:08:48;;;;;;;15.00;6.40;;;;;1.60;99913.00;;;;5043460;28;20230;-73
2023/12/01 05:11:34;;;;;;;22.50;6.80;;;;;1.60;99904.00;;;;5042144;28;20234;-71
2023/12/01 05:14:20;;;;;;;13.50;8.00;;;;;1.60;99923.00;;;;5040782;28;20911;-71
2023/12/01 05:17:07;;;;;;;14.63;6.93;;;;;1.50;99925.00;;;;5046496;28;20241;-72
2023/12/01 05:19:56;;;;;;;15.73;6.17;;;;;1.50;99921.00;;;;5044075;28;20238;-71
2023/12/01 05:22:46;;;;;;;11.00;5.40;;;;;1.40;99936.00;;;;5043425;28;20980;-72
2023/12/01 05:25:33;;;;;;;9.97;6.67;;;;;1.50;99939.00;;;;5046053;28;20616;-72
2023/12/01 05:28:20;;;;;;;14.60;6.50;;;;;1.60;99936.00;;;;5046671;28;20228;-74
2023/12/01 05:31:07;;;;;;;10.13;5.60;;;;;1.50;99936.00;;;;5038610;28;20248;-72
2023/12/01 05:33:53;;;;;;;21.37;8.67;;;;;1.50;99928.00;;;;5045955;28;20241;-71
2023/12/01 05:36:52;;;;;;;20.03;6.70;;;;;1.60;99937.00;;;;5037679;28;20347;-70
2023/12/01 05:39:38;;;;;;;11.97;7.77;;;;;1.50;99942.00;;;;5046763;28;20228;-71
2023/12/01 05:42:26;;;;;;;13.87;7.23;;;;;1.60;99928.00;;;;5043825;28;20362;-71
2023/12/01 05:45:12;;;;;;;22.97;7.97;;;;;1.50;99932.00;;;;5045287;28;20233;-69
2023/12/01 05:47:59;;;;;;;17.97;7.33;;;;;1.60;99939.00;;;;5045839;28;20656;-72
2023/12/01 05:50:45;;;;;;;11.23;6.77;;;;;1.50;99944.00;;;;5044118;28;20234;-75
2023/12/01 05:53:34;;;;;;;14.67;6.20;;;;;1.50;99945.00;;;;5069765;28;20265;-75
2023/12/01 05:56:20;;;;;;;13.73;7.10;;;;;1.50;99953.00;;;;5057554;28;20324;-75
2023/12/01 05:59:08;;;;;;;13.13;8.37;;;;;1.50;99954.00;;;;5070780;28;20306;-73
2023/12/01 06:01:54;;;;;;;15.07;6.20;;;;;1.60;99958.00;;;;5063533;28;20295;-75
2023/12/01 06:04:41;;;;;;;17.73;9.17;;;;;1.60;99962.00;;;;5065623;28;20283;-76
2023/12/01 06:07:27;;;;;;;22.20;8.07;;;;;1.60;99964.00;;;;5064269;28;20228;-74
2023/12/01 06:10:14;;;;;;;14.90;6.93;;;;;1.60;99963.00;;;;5061931;28;20229;-72
2023/12/01 06:13:01;;;;;;;10.73;6.33;;;;;1.50;99960.00;;;;5045439;28;20232;-71
2023/12/01 06:15:49;;;;;;;17.40;6.83;;;;;1.60;99969.00;;;;5045269;28;20268;-74
2023/12/01 06:18:35;;;;;;;16.60;6.77;;;;;1.60;99964.00;;;;5039748;28;20234;-71
2023/12/01 06:21:21;;;;;;;15.37;7.17;;;;;1.60;99968.00;;;;5045504;28;20240;-70
2023/12/01 06:24:08;;;;;;;15.20;7.47;;;;;1.50;99968.00;;;;5045185;28;20302;-72
2023/12/01 06:26:56;;;;;;;12.57;6.93;;;;;1.50;99986.00;;;;5045654;28;20672;-73
2023/12/01 06:29:42;;;;;;;12.07;7.90;;;;;1.50;99991.00;;;;5043438;28;20621;-72
2023/12/01 06:32:30;;;;;;;15.13;8.33;;;;;1.60;99986.00;;;;5035905;28;20776;-72
2023/12/01 06:35:18;;;;;;;15.10;6.93;;;;;1.50;99990.00;;;;5043509;28;20947;-70
2023/12/01 06:38:05;;;;;;;15.27;7.53;;;;;1.40;99986.00;;;;5044295;28;20229;-70
2023/12/01 06:40:51;;;;;;;9.57;7.40;;;;;1.40;100002.00;;;;5043624;28;20234;-71
2023/12/01 06:43:37;;;;;;;13.40;6.03;;;;;1.30;99989.00;;;;5043675;28;20302;-71
2023/12/01 06:46:24;;;;;;;9.40;6.03;;;;;1.40;99995.00;;;;5045051;28;20371;-73
2023/12/01 06:49:11;;;;;;;17.00;6.93;;;;;1.40;99996.00;;;;5043220;28;20618;-73
2023/12/01 06:51:59;;;;;;;19.30;7.27;;;;;1.50;100007.00;;;;5044074;28;20239;-74
2023/12/01 06:54:45;;;;;;;13.53;6.83;;;;;1.50;100009.00;;;;5044730;28;20296;-72
2023/12/01 06:57:31;;;;;;;15.00;7.03;;;;;1.40;100015.00;;;;5040685;28;20236;-72
2023/12/01 07:00:29;;;;;;;14.90;6.80;;;;;1.50;100017.00;;;;5044210;28;20232;-72
2023/12/01 07:03:18;;;;;;;13.30;5.57;;;;;1.40;100029.00;;;;5043910;28;20251;-72
2023/12/01 07:06:06;;;;;;;14.40;6.63;;;;;1.40;100027.00;;;;5041926;28;20241;-72
2023/12/01 07:08:53;;;;;;;19.00;8.83;;;;;1.40;100027.00;;;;5041087;28;20248;-71
2023/12/01 07:11:40;;;;;;;12.40;6.57;;;;;1.30;100032.00;;;;5044110;28;20270;-73
2023/12/01 07:14:27;;;;;;;12.27;6.90;;;;;1.40;100041.00;;;;5044757;28;20247;-73
2023/12/01 07:17:13;;;;;;;20.63;7.27;;;;;1.40;100038.00;;;;5044326;28;20240;-71
2023/12/01 07:20:00;;;;;;;16.27;8.30;;;;;1.30;100043.00;;;;5041253;28;20738;-73
2023/12/01 07:22:49;;;;;;;13.97;6.77;;;;;1.20;100037.00;;;;5041078;28;20597;-72
2023/12/01 07:25:36;;;;;;;13.00;7.17;;;;;1.20;100031.00;;;;5044308;28;20224;-72
2023/12/01 07:28:24;;;;;;;11.20;5.97;;;;;1.30;100042.00;;;;5045326;28;20587;-70
2023/12/01 07:31:11;;;;;;;11.63;6.83;;;;;1.40;100045.00;;;;5042677;28;20328;-72
2023/12/01 07:33:58;;;;;;;13.13;6.53;;;;;1.30;100048.00;;;;5044558;28;20232;-72
2023/12/01 07:36:45;;;;;;;6.90;5.13;;;;;1.10;100049.00;;;;5044037;28;20283;-72
2023/12/01 07:39:33;;;;;;;12.90;5.57;;;;;1.00;100054.00;;;;5043581;28;20285;-71
2023/12/01 07:42:19;;;;;;;13.00;7.07;;;;;1.00;100054.00;;;;5043104;28;20229;-71
2023/12/01 07:45:07;;;;;;;10.93;6.47;;;;;0.90;100054.00;;;;5040301;28;20247;-72
2023/12/01 07:47:55;;;;;;;12.50;6.23;;;;;1.00;100058.00;;;;5042333;28;20272;-70
2023/12/01 07:50:44;;;;;;;17.27;8.47;;;;;1.00;100056.00;;;;5038579;28;20314;-71
2023/12/01 07:53:31;;;;;;;8.67;5.73;;;;;0.90;100056.00;;;;5047590;28;20229;-69
2023/12/01 07:56:22;;;;;;;12.60;7.03;;;;;0.90;100066.00;;;;5048041;28;20285;-70
2023/12/01 07:59:09;;;;;;;13.70;7.20;;;;;1.00;100061.00;;;;5045031;28;20226;-73
2023/12/01 08:01:55;;;;;;;11.57;6.57;;;;;1.10;100062.00;;;;5047816;28;20727;-71
2023/12/01 08:04:41;;;;;;;14.77;7.67;;;;;1.10;100058.00;;;;5047128;28;20725;-71
2023/12/01 08:07:28;;;;;;;13.53;7.40;;;;;1.10;100062.00;;;;5048100;28;20366;-71
2023/12/01 08:10:15;;;;;;;13.53;6.30;;;;;1.10;100064.00;;;;5045494;28;20335;-70
2023/12/01 08:13:08;;;;;;;15.23;7.57;;;;;0.90;100063.00;;;;5046370;28;20895;-71
2023/12/01 08:15:54;;;;;;;18.20;7.47;;;;;1.10;100066.00;;;;5039480;28;20231;-71
2023/12/01 08:18:40;;;;;;;5.97;5.27;;;;;1.00;100066.00;;;;5041002;28;20356;-70
2023/12/01 08:21:26;;;;;;;8.30;5.67;;;;;1.00;100075.00;;;;5047135;28;20367;-71
2023/12/01 08:24:13;;;;;;;8.17;5.13;;;;;1.00;100068.00;;;;5046934;28;20256;-71
2023/12/01 08:26:59;;;;;;;10.67;5.50;;;;;1.00;100073.00;;;;5047146;28;20777;-70
2023/12/01 08:29:47;;;;;;;15.47;7.23;;;;;1.10;100078.00;;;;5041154;28;20227;-71
2023/12/01 08:32:33;;;;;;;11.73;5.93;;;;;1.10;100074.00;;;;5047515;28;20226;-70
2023/12/01 08:35:21;;;;;;;10.50;5.33;;;;;1.00;100089.00;;;;5046680;28;20232;-71
2023/12/01 08:38:09;;;;;;;10.43;6.53;;;;;0.90;100088.00;;;;5039563;28;20242;-71
2023/12/01 08:40:55;;;;;;;8.73;5.13;;;;;0.90;100089.00;;;;5045968;28;20233;-70
2023/12/01 08:43:42;;;;;;;20.47;6.57;;;;;1.00;100090.00;;;;5047306;28;20788;-71
2023/12/01 08:46:30;;;;;;;8.03;5.53;;;;;1.20;100087.00;;;;5046826;28;20315;-72
2023/12/01 08:49:16;;;;;;;11.67;6.30;;;;;1.10;100084.00;;;;5047662;28;20303;-70
2023/12/01 08:52:02;;;;;;;14.80;6.97;;;;;1.10;100090.00;;;;5044518;28;20920;-70
2023/12/01 08:54:49;;;;;;;10.60;5.63;;;;;1.20;100078.00;;;;5047001;28;20231;-69
2023/12/01 08:57:35;;;;;;;12.97;5.87;;;;;1.20;100081.00;;;;5046741;28;20230;-72
2023/12/01 09:00:22;;;;;;;11.57;6.03;;;;;1.10;100084.00;;;;5045588;28;20275;-71
2023/12/01 09:03:11;;;;;;;10.57;5.70;;;;;1.10;100099.00;;;;5036000;28;20245;-72
2023/12/01 09:05:57;;;;;;;10.17;5.57;;;;;1.20;100109.00;;;;5041500;28;20236;-70
2023/12/01 09:08:43;;;;;;;14.17;6.30;;;;;1.10;100111.00;;;;5039519;28;20228;-71
2023/12/01 09:11:30;;;;;;;17.40;7.03;;;;;1.00;100120.00;;;;5044837;28;20240;-72
2023/12/01 09:14:16;;;;;;;10.40;4.93;;;;;0.90;100109.00;;;;5046490;28;20261;-71
2023/12/01 09:17:02;;;;;;;7.60;4.70;;;;;0.80;100127.00;;;;5043835;28;20322;-72
2023/12/01 09:19:50;;;;;;;12.83;5.87;;;;;0.70;100126.00;;;;5046147;28;20294;-71
2023/12/01 09:22:37;;;;;;;13.63;5.47;;;;;0.70;100123.00;;;;5045783;28;20255;-71
2023/12/01 09:25:23;;;;;;;8.73;4.90;;;;;0.70;100128.00;;;;5043074;28;20226;-70
2023/12/01 09:28:10;;;;;;;6.97;4.30;;;;;0.70;100131.00;;;;5040464;28;20236;-72
2023/12/01 09:30:58;;;;;;;13.00;5.97;;;;;0.70;100130.00;;;;5041054;28;20247;-69
2023/12/01 09:33:44;;;;;;;10.67;5.27;;;;;0.60;100118.00;;;;5040121;28;20221;-69
2023/12/01 09:36:33;;;;;;;12.47;5.83;;;;;0.80;100137.00;;;;5045209;28;20233;-70
2023/12/01 09:39:20;;;;;;;12.13;6.63;;;;;0.90;100129.00;;;;5045674;28;20302;-70
2023/12/01 09:42:07;;;;;;;11.83;5.43;;;;;1.00;100142.00;;;;5044933;28;20364;-70
2023/12/01 09:44:55;;;;;;;15.27;6.13;;;;;0.90;100145.00;;;;5039841;28;20232;-70
2023/12/01 09:47:51;;;;;;;9.53;5.80;;;;;0.80;100156.00;;;;5038638;28;20251;-71
2023/12/01 09:50:37;;;;;;;7.53;4.43;;;;;0.80;100152.00;;;;5045349;28;20368;-71
2023/12/01 09:53:26;;;;;;;10.67;6.17;;;;;0.90;100155.00;;;;5045393;28;20233;-71
2023/12/01 09:56:12;;;;;;;7.23;5.07;;;;;0.90;100153.00;;;;5045244;28;20232;-70
2023/12/01 09:59:00;;;;;;;10.67;4.30;;;;;0.80;100167.00;;;;5045925;28;20243;-74
2023/12/01 10:01:47;;;;;;;14.07;5.37;;;;;0.80;100157.00;;;;5045722;28;20711;-70
2023/12/01 10:04:34;;;;;;;14.00;6.37;;;;;0.80;100159.00;;;;5045256;28;20367;-71
2023/12/01 10:07:21;;;;;;;9.23;4.73;;;;;0.70;100156.00;;;;5042742;28;20228;-70
2023/12/01 10:10:20;;;;;;;13.43;5.80;;;;;0.60;100161.00;;;;5044839;28;20256;-69
2023/12/01 10:13:09;;;;;;;7.80;5.17;;;;;0.70;100169.00;;;;5043827;28;20619;-70
2023/12/01 10:15:59;;;;;;;8.13;5.33;;;;;0.80;100159.00;;;;5044943;28;20680;-71
2023/12/01 10:18:56;;;;;;;10.87;6.20;;;;;0.80;100161.00;;;;5045068;28;20308;-70
2023/12/01 10:21:45;;;;;;;10.60;5.57;;;;;0.60;100153.00;;;;5043954;28;20225;-70
2023/12/01 10:24:33;;;;;;;8.33;5.30;;;;;0.70;100153.00;;;;5042302;28;20229;-69
2023/12/01 10:27:21;;;;;;;11.67;5.80;;;;;0.70;100155.00;;;;5045216;28;20240;-72
2023/12/01 10:30:11;;;;;;;7.87;5.00;;;;;0.60;100156.00;;;;5040134;28;20294;-69
2023/12/01 10:33:02;;;;;;;7.07;3.90;;;;;0.40;100159.00;;;;5040273;28;20336;-70
2023/12/01 10:35:59;;;;;;;11.67;6.27;;;;;0.60;100155.00;;;;5045611;28;20224;-71
2023/12/01 10:38:46;;;;;;;8.40;3.80;;;;;0.50;100163.00;;;;5029629;28;20710;-70
2023/12/01 10:41:33;;;;;;;19.87;7.23;;;;;0.60;100152.00;;;;5044433;28;20346;-69
2023/12/01 10:44:23;;;;;;;10.70;5.47;;;;;0.60;100147.00;;;;5040992;28;20605;-70
2023/12/01 10:47:11;;;;;;;7.03;4.47;;;;;0.50;100145.00;;;;5042014;28;20236;-71
2023/12/01 10:49:58;;;;;;;11.10;4.63;;;;;0.50;100138.00;;;;5044833;28;20283;-68
2023/12/01 10:52:47;;;;;;;6.03;4.63;;;;;0.40;100144.00;;;;5044482;28;20224;-70
2023/12/01 10:55:33;;;;;;;11.67;5.43;;;;;0.40;100145.00;;;;5042870;28;20250;-70
2023/12/01 10:58:22;;;;;;;15.40;5.47;;;;;0.70;100141.00;;;;5044161;28;20243;-70
2023/12/01 11:01:10;;;;;;;6.90;4.67;;;;;0.80;100145.00;;;;5041659;28;20821;-72
2023/12/01 11:04:00;;;;;;;13.10;6.43;;;;;0.70;100138.00;;;;5037761;28;20257;-70
2023/12/01 11:06:57;;;;;;;10.43;5.20;;;;;0.70;100153.00;;;;5043873;28;20351;-69
2023/12/01 11:09:56;;;;;;;12.90;6.37;;;;;0.90;100142.00;;;;5043923;28;20225;-69
2023/12/01 11:12:53;;;;;;;13.40;4.93;;;;;0.70;100141.00;;;;5042951;28;20922;-69
2023/12/01 11:15:42;;;;;;;10.43;5.83;;;;;0.70;100130.00;;;;5043885;28;20252;-69
2023/12/01 11:18:30;;;;;;;10.07;4.67;;;;;0.70;100132.00;;;;5041759;28;20237;-69
2023/12/01 11:21:17;;;;;;;12.37;4.67;;;;;0.70;100135.00;;;;5039874;28;20227;-72
2023/12/01 11:24:26;;;;;;;11.40;3.83;;;;;0.80;100130.00;;;;5040790;28;20261;-71
2023/12/01 11:27:16;;;;;;;8.53;5.17;;;;;0.60;100124.00;;;;5043738;28;20233;-69
2023/12/01 11:30:07;;;;;;;8.43;4.93;;;;;0.50;100133.00;;;;5037948;28;20367;-73
2023/12/01 11:32:53;;;;;;;11.33;5.83;;;;;0.60;100138.00;;;;5042739;28;20776;-69
2023/12/01 11:36:20;;;;;;;3.87;3.20;;;;;0.50;100135.00;;;;5042409;28;20319;-70
2023/12/01 11:39:16;;;;;;;6.50;3.90;;;;;0.50;100138.00;;;;5032807;28;20656;-71
2023/12/01 11:42:16;;;;;;;6.97;4.07;;;;;0.50;100138.00;;;;5043978;28;20240;-70
2023/12/01 11:45:04;;;;;;;3.77;2.53;;;;;0.70;100127.00;;;;5036284;28;20290;-72
2023/12/01 11:47:51;;;;;;;6.50;4.00;;;;;0.70;100139.00;;;;5043169;28;20224;-70
2023/12/01 11:50:40;;;;;;;3.60;3.03;;;;;0.60;100130.00;;;;5042986;28;20725;-69
2023/12/01 11:53:32;;;;;;;7.43;4.03;;;;;0.70;100139.00;;;;5044086;28;20279;-70
2023/12/01 11:56:18;;;;;;;7.73;4.47;;;;;0.80;100139.00;;;;5040604;28;20628;-69
2023/12/01 11:59:08;;;;;;;8.83;3.93;;;;;0.70;100143.00;;;;5040463;28;20244;-69
2023/12/01 12:01:56;;;;;;;9.13;3.43;;;;;0.90;100138.00;;;;5043892;28;20240;-71
2023/12/01 12:04:46;;;;;;;9.87;4.03;;;;;0.80;100136.00;;;;5040949;28;20242;-68
2023/12/01 12:07:33;;;;;;;17.80;5.47;;;;;0.80;100139.00;;;;5040885;28;20237;-68
2023/12/01 12:10:20;;;;;;;10.20;5.00;;;;;0.70;100136.00;;;;5039906;28;20232;-70
2023/12/01 12:13:11;;;;;;;9.83;4.50;;;;;0.60;100130.00;;;;5044150;28;20323;-70
2023/12/01 12:15:58;;;;;;;8.67;5.13;;;;;0.50;100144.00;;;;5043549;28;20224;-69
2023/12/01 12:18:44;;;;;;;7.97;4.67;;;;;0.60;100146.00;;;;5042470;28;20232;-68
2023/12/01 12:21:33;;;;;;;9.07;5.37;;;;;0.70;100144.00;;;;5039627;28;20820;-70
2023/12/01 12:24:19;;;;;;;9.77;4.20;;;;;0.80;100141.00;;;;5042454;28;20224;-71
2023/12/01 12:27:07;;;;;;;8.97;5.10;;;;;0.60;100142.00;;;;5043596;28;20237;-71
2023/12/01 12:29:53;;;;;;;8.77;4.50;;;;;0.60;100142.00;;;;5041347;28;20241;-68
2023/12/01 12:32:40;;;;;;;9.17;3.97;;;;;0.60;100144.00;;;;5041406;28;20233;-70
2023/12/01 12:35:31;;;;;;;7.40;3.97;;;;;0.70;100146.00;;;;5043691;28;20241;-69
2023/12/01 12:38:18;;;;;;;7.23;3.87;;;;;1.00;100134.00;;;;5039341;28;20236;-70
2023/12/01 12:41:21;;;;;;;7.37;4.70;;;;;0.90;100139.00;;;;5040086;28;20775;-72
2023/12/01 12:44:13;;;;;;;5.73;3.23;;;;;0.70;100155.00;;;;5045470;28;20276;-68
2023/12/01 12:47:01;;;;;;;8.57;5.10;;;;;0.70;100147.00;;;;5043341;28;20757;-71
2023/12/01 12:49:48;;;;;;;8.23;4.60;;;;;0.80;100151.00;;;;5046599;28;20228;-71
2023/12/01 12:52:34;;;;;;;7.87;5.37;;;;;0.90;100148.00;;;;5043386;28;20760;-70
2023/12/01 12:55:26;;;;;;;10.00;4.83;;;;;0.80;100159.00;;;;5046004;28;20363;-70
2023/12/01 12:58:12;;;;;;;13.13;4.57;;;;;0.80;100156.00;;;;5046358;28;20243;-70
2023/12/01 13:01:00;;;;;;;6.20;3.93;;;;;0.80;100156.00;;;;5046415;28;20444;-70
2023/12/01 13:03:47;;;;;;;4.93;3.33;;;;;0.90;100147.00;;;;5036580;28;20309;-70
2023/12/01 13:06:36;;;;;;;6.23;4.57;;;;;0.90;100153.00;;;;5035878;28;20714;-70
2023/12/01 13:09:34;;;;;;;8.50;4.33;;;;;1.00;100157.00;;;;5046700;28;20248;-71
2023/12/01 13:12:21;;;;;;;5.87;4.07;;;;;0.90;100154.00;;;;5043615;28;20790;-71
2023/12/01 13:15:10;;;;;;;5.73;3.87;;;;;0.90;100168.00;;;;5039629;28;20597;-71
2023/12/01 13:17:58;;;;;;;6.57;3.60;;;;;0.80;100160.00;;;;5044651;28;20241;-70
2023/12/01 13:20:45;;;;;;;11.87;4.50;;;;;1.00;100157.00;;;;5033938;28;20271;-69
2023/12/01 13:23:32;;;;;;;8.43;4.70;;;;;0.90;100148.00;;;;5047086;28;20240;-69
2023/12/01 13:26:18;;;;;;;5.60;3.50;;;;;1.00;100142.00;;;;5040810;28;20372;-69
2023/12/01 13:29:04;;;;;;;6.60;3.67;;;;;1.00;100142.00;;;;5045052;28;20311;-69
2023/12/01 13:31:51;;;;;;;9.73;4.87;;;;;1.00;100156.00;;;;5046055;28;20268;-69
2023/12/01 13:34:40;;;;;;;8.73;5.23;;;;;1.10;100150.00;;;;5046671;28;20606;-69
2023/12/01 13:37:26;;;;;;;8.87;5.07;;;;;1.10;100144.00;;;;5044831;28;20347;-69
2023/12/01 13:40:12;;;;;;;8.57;5.00;;;;;1.10;100147.00;;;;5039564;28;20303;-70
2023/12/01 13:42:59;;;;;;;7.77;4.97;;;;;1.00;100150.00;;;;5045830;28;20271;-73
2023/12/01 13:45:45;;;;;;;10.50;6.37;;;;;1.10;100158.00;;;;5045650;28;20221;-73
2023/12/01 13:48:32;;;;;;;9.10;5.00;;;;;1.10;100160.00;;;;5045541;28;20283;-69
2023/12/01 13:51:20;;;;;;;8.57;4.60;;;;;1.00;100157.00;;;;5039566;28;20247;-70
2023/12/01 13:54:06;;;;;;;8.40;4.83;;;;;1.00;100166.00;;;;5046191;28;20233;-69
2023/12/01 13:56:52;;;;;;;6.90;4.93;;;;;1.10;100167.00;;;;5044116;28;20224;-69
2023/12/01 13:59:40;;;;;;;7.97;5.17;;;;;0.80;100161.00;;;;5045195;28;20241;-70